Time;durP1;ratioP1;P1;durP2;ratioP2;P2;SDS_P1;SDS_P2;PMS_P1;PMS_P2;Temp;Humidity;BMP_temperature;BMP_pressure;BME280_temperature;BME280_humidity;BME280_pressure;Samples;Min_cycle;Max_cycle;Signal;HPM_P1;HPM_P2
2021/11/22 00:00:31;;;;;;;7.13;4.47;;;6.80;99.90;;;;;;5054589;28;21041;-75
2021/11/22 00:02:58;;;;;;;7.80;5.15;;;6.80;99.90;;;;;;5054325;28;20662;-76
2021/11/22 00:05:24;;;;;;;11.52;5.47;;;6.80;99.90;;;;;;5036562;28;20173;-76
2021/11/22 00:07:50;;;;;;;12.27;4.63;;;6.80;99.90;;;;;;5053866;28;20180;-76
2021/11/22 00:10:17;;;;;;;8.90;5.13;;;6.80;99.90;;;;;;5053971;28;20564;-76
2021/11/22 00:12:43;;;;;;;12.52;4.50;;;6.70;99.90;;;;;;5035908;28;20623;-76
2021/11/22 00:15:12;;;;;;;7.70;4.75;;;6.70;99.90;;;;;;5054029;28;20169;-76
2021/11/22 00:17:39;;;;;;;10.48;5.15;;;6.70;99.90;;;;;;5053692;28;20173;-76
2021/11/22 00:20:08;;;;;;;8.75;4.72;;;6.70;99.90;;;;;;5036261;28;20185;-75
2021/11/22 00:22:35;;;;;;;10.85;4.15;;;6.70;99.90;;;;;;5053971;28;20182;-75
2021/11/22 00:25:01;;;;;;;6.47;4.05;;;6.60;99.90;;;;;;5019775;28;20215;-76
2021/11/22 00:27:27;;;;;;;7.32;4.95;;;6.60;99.90;;;;;;5053473;28;20169;-76
2021/11/22 00:29:55;;;;;;;7.93;4.75;;;6.60;99.90;;;;;;5036227;28;20194;-76
2021/11/22 00:32:29;;;;;;;7.70;5.00;;;6.60;99.90;;;;;;5055748;28;20239;-76
2021/11/22 00:35:15;;;;;;;7.60;4.30;;;6.60;99.90;;;;;;5054232;28;20230;-76
2021/11/22 00:37:44;;;;;;;7.97;5.00;;;6.60;99.90;;;;;;5053231;28;20153;-76
2021/11/22 00:40:13;;;;;;;7.70;4.10;;;6.50;99.90;;;;;;5053484;28;20280;-77
2021/11/22 00:42:42;;;;;;;9.57;4.53;;;6.50;99.90;;;;;;5053157;28;20219;-76
2021/11/22 00:45:08;;;;;;;6.88;3.80;;;6.50;99.90;;;;;;5053689;28;20586;-76
2021/11/22 00:47:36;;;;;;;7.87;3.83;;;6.50;99.90;;;;;;5053067;28;20173;-76
2021/11/22 00:50:03;;;;;;;5.93;3.35;;;6.50;99.90;;;;;;5035607;28;20713;-76
2021/11/22 00:52:29;;;;;;;8.10;4.20;;;6.50;99.90;;;;;;5052934;28;20209;-77
2021/11/22 00:54:54;;;;;;;7.80;3.63;;;6.60;99.90;;;;;;5053281;28;20165;-76
2021/11/22 00:57:20;;;;;;;11.53;4.37;;;6.60;99.90;;;;;;5045077;28;20579;-76
2021/11/22 00:59:46;;;;;;;7.03;3.60;;;6.60;99.90;;;;;;5044994;28;20221;-76
2021/11/22 01:02:12;;;;;;;5.30;3.40;;;6.70;99.90;;;;;;5048238;28;20177;-77
2021/11/22 01:04:38;;;;;;;5.20;2.93;;;6.80;99.90;;;;;;5041101;28;20174;-77
2021/11/22 01:07:04;;;;;;;5.97;2.80;;;6.80;99.90;;;;;;5032466;28;20184;-77
2021/11/22 01:09:30;;;;;;;4.63;2.88;;;6.80;99.90;;;;;;5039266;28;20628;-77
2021/11/22 01:11:57;;;;;;;7.70;3.45;;;6.80;99.90;;;;;;5041209;28;20259;-76
2021/11/22 01:14:24;;;;;;;8.35;4.05;;;6.80;99.90;;;;;;5045034;28;20222;-77
2021/11/22 01:16:49;;;;;;;6.70;3.38;;;6.80;99.90;;;;;;5022728;28;20619;-76
2021/11/22 01:19:15;;;;;;;5.60;2.83;;;6.80;99.90;;;;;;5030300;28;20196;-76
2021/11/22 01:21:41;;;;;;;4.67;2.80;;;6.80;99.90;;;;;;5021887;28;20256;-77
2021/11/22 01:24:07;;;;;;;5.30;3.50;;;6.80;99.90;;;;;;5024488;28;20331;-76
2021/11/22 01:26:34;;;;;;;5.38;2.85;;;6.80;99.90;;;;;;5026231;28;20600;-77
2021/11/22 01:28:59;;;;;;;7.70;3.60;;;6.80;99.90;;;;;;5046592;28;20169;-76
2021/11/22 01:31:25;;;;;;;9.73;3.13;;;6.80;99.90;;;;;;5040941;28;20283;-77
2021/11/22 01:33:51;;;;;;;7.70;2.80;;;6.90;99.90;;;;;;5044389;28;20173;-77
2021/11/22 01:36:17;;;;;;;6.78;2.92;;;6.90;99.90;;;;;;5043148;28;20269;-76
2021/11/22 01:38:43;;;;;;;7.17;2.90;;;7.00;99.90;;;;;;5010012;28;20268;-77
2021/11/22 01:41:09;;;;;;;10.80;3.30;;;7.00;99.90;;;;;;5052506;28;20591;-77
2021/11/22 01:43:35;;;;;;;10.32;3.60;;;7.10;99.90;;;;;;5037993;28;20177;-77
2021/11/22 01:46:01;;;;;;;4.93;3.50;;;7.10;99.90;;;;;;5026765;28;20247;-76
2021/11/22 01:48:27;;;;;;;5.83;3.17;;;7.20;99.90;;;;;;5031894;28;21201;-76
2021/11/22 01:50:54;;;;;;;7.23;3.37;;;7.30;99.90;;;;;;5028261;28;20197;-75
2021/11/22 01:53:23;;;;;;;7.35;3.38;;;7.30;99.90;;;;;;5047617;28;20191;-76
2021/11/22 01:55:50;;;;;;;12.02;4.40;;;7.40;99.90;;;;;;5018833;28;20173;-76
2021/11/22 01:58:16;;;;;;;7.75;3.97;;;7.50;99.90;;;;;;5035104;28;20626;-77
2021/11/22 02:00:47;;;;;;;11.18;5.50;;;7.50;99.90;;;;;;5045654;28;20571;-77
2021/11/22 02:03:18;;;;;;;5.32;3.95;;;7.60;99.90;;;;;;5026180;28;20227;-76
2021/11/22 02:05:45;;;;;;;7.97;4.20;;;7.60;99.90;;;;;;5033188;28;20184;-76
2021/11/22 02:08:12;;;;;;;4.70;4.10;;;7.70;99.90;;;;;;5050884;28;20226;-76
2021/11/22 02:10:38;;;;;;;8.13;3.90;;;7.80;99.90;;;;;;5052047;28;20196;-76
2021/11/22 02:13:04;;;;;;;8.90;4.40;;;7.80;99.90;;;;;;5034922;22;20209;-75
2021/11/22 02:15:32;;;;;;;6.93;4.65;;;7.90;99.90;;;;;;5019617;28;20186;-74
2021/11/22 02:17:58;;;;;;;6.65;4.65;;;7.90;99.90;;;;;;5014129;28;20621;-75
2021/11/22 02:20:28;;;;;;;6.13;4.40;;;8.00;99.90;;;;;;5031896;28;20173;-75
2021/11/22 02:23:00;;;;;;;5.65;3.33;;;8.00;99.90;;;;;;5028224;28;20288;-75
2021/11/22 02:25:29;;;;;;;4.53;3.67;;;8.10;99.90;;;;;;5006152;28;20181;-75
2021/11/22 02:27:55;;;;;;;9.20;4.90;;;8.10;99.90;;;;;;4997404;28;20173;-75
2021/11/22 02:30:29;;;;;;;7.78;4.15;;;8.20;99.90;;;;;;5014539;28;20162;-76
2021/11/22 02:32:57;;;;;;;8.57;5.43;;;8.20;99.90;;;;;;5013766;28;20225;-76
2021/11/22 02:35:23;;;;;;;6.75;5.38;;;8.20;99.90;;;;;;5031687;28;20181;-76
2021/11/22 02:37:50;;;;;;;8.32;5.90;;;8.30;99.90;;;;;;5013750;28;20260;-76
2021/11/22 02:40:16;;;;;;;8.32;5.70;;;8.30;99.90;;;;;;5031822;28;20173;-76
2021/11/22 02:42:44;;;;;;;10.25;5.75;;;8.30;99.90;;;;;;5031690;28;20521;-76
2021/11/22 02:45:12;;;;;;;8.88;5.47;;;8.30;99.90;;;;;;5031526;28;20181;-75
2021/11/22 02:47:38;;;;;;;10.98;7.10;;;8.30;99.90;;;;;;5013860;28;20170;-76
2021/11/22 02:50:05;;;;;;;7.80;5.65;;;8.30;99.90;;;;;;5013774;28;20181;-75
2021/11/22 02:52:31;;;;;;;8.73;7.10;;;8.30;99.90;;;;;;5031367;28;20193;-75
2021/11/22 02:54:57;;;;;;;9.33;5.80;;;8.30;99.90;;;;;;5031393;28;20731;-76
2021/11/22 02:57:23;;;;;;;10.73;7.00;;;8.30;99.90;;;;;;5031244;28;20932;-76
2021/11/22 02:59:49;;;;;;;12.93;8.63;;;8.30;99.90;;;;;;5015398;28;20585;-75
2021/11/22 03:02:16;;;;;;;13.65;7.60;;;8.30;99.90;;;;;;5032798;28;20584;-75
2021/11/22 03:04:44;;;;;;;10.23;7.50;;;8.30;99.90;;;;;;5031867;28;20239;-76
2021/11/22 03:07:11;;;;;;;9.77;7.80;;;8.30;99.90;;;;;;5013615;28;20172;-75
2021/11/22 03:09:37;;;;;;;13.75;9.18;;;8.30;99.90;;;;;;5032069;28;20185;-76
2021/11/22 03:12:07;;;;;;;11.43;9.18;;;8.30;99.90;;;;;;5031821;28;20197;-76
2021/11/22 03:14:34;;;;;;;9.45;8.45;;;8.40;99.90;;;;;;5031212;28;20197;-76
2021/11/22 03:17:00;;;;;;;14.10;9.27;;;8.40;99.90;;;;;;5031162;28;20650;-76
2021/11/22 03:19:26;;;;;;;9.50;7.75;;;8.40;99.90;;;;;;5033626;28;20170;-75
2021/11/22 03:21:52;;;;;;;9.27;8.10;;;8.40;99.90;;;;;;5035584;28;20174;-76
2021/11/22 03:24:19;;;;;;;10.25;7.20;;;8.40;99.90;;;;;;5017598;28;20200;-75
2021/11/22 03:26:45;;;;;;;9.93;7.85;;;8.40;99.90;;;;;;5017362;28;20185;-76
2021/11/22 03:29:11;;;;;;;14.95;8.77;;;8.40;99.90;;;;;;5035536;28;20537;-76
2021/11/22 03:31:39;;;;;;;10.87;7.57;;;8.50;99.90;;;;;;5035339;28;20296;-75
2021/11/22 03:34:07;;;;;;;9.32;7.53;;;8.50;99.90;;;;;;5035056;28;20591;-76
2021/11/22 03:36:33;;;;;;;14.00;9.60;;;8.50;99.90;;;;;;5034604;28;20512;-76
2021/11/22 03:39:01;;;;;;;10.95;8.48;;;8.50;99.90;;;;;;5017702;28;20162;-76
2021/11/22 03:41:32;;;;;;;11.45;10.13;;;8.50;99.90;;;;;;5017393;28;20570;-76
2021/11/22 03:43:59;;;;;;;11.57;9.25;;;8.60;99.90;;;;;;5035194;28;20198;-76
2021/11/22 03:46:26;;;;;;;11.48;9.77;;;8.60;99.90;;;;;;5034507;28;20201;-76
2021/11/22 03:48:52;;;;;;;14.38;10.32;;;8.60;99.90;;;;;;5017532;28;20165;-75
2021/11/22 03:51:19;;;;;;;11.93;9.55;;;8.60;99.90;;;;;;5035160;28;20221;-76
2021/11/22 03:53:46;;;;;;;16.45;10.20;;;8.60;99.90;;;;;;5017442;28;20256;-75
2021/11/22 03:56:12;;;;;;;18.33;11.63;;;8.60;99.90;;;;;;5035238;28;20227;-75
2021/11/22 03:58:38;;;;;;;15.38;10.60;;;8.60;99.90;;;;;;5035310;28;20158;-75
2021/11/22 04:01:04;;;;;;;17.37;11.07;;;8.70;99.90;;;;;;5035114;28;20708;-75
2021/11/22 04:03:31;;;;;;;11.32;10.13;;;8.60;99.90;;;;;;5016596;28;20600;-75
2021/11/22 04:05:56;;;;;;;12.65;11.20;;;8.70;99.90;;;;;;5034791;28;20169;-75
2021/11/22 04:08:22;;;;;;;11.87;10.63;;;8.70;99.90;;;;;;5034478;28;20177;-75
2021/11/22 04:10:49;;;;;;;11.10;9.63;;;8.70;99.90;;;;;;5017086;28;20573;-75
2021/11/22 04:13:15;;;;;;;12.10;10.77;;;8.70;99.90;;;;;;5000418;28;20612;-75
2021/11/22 04:15:43;;;;;;;13.55;11.25;;;8.70;99.90;;;;;;5017749;28;20590;-75
2021/11/22 04:18:10;;;;;;;14.38;11.07;;;8.70;99.90;;;;;;5033869;28;20581;-75
2021/11/22 04:20:36;;;;;;;13.93;10.85;;;8.70;99.90;;;;;;5017033;28;20260;-75
2021/11/22 04:23:03;;;;;;;13.63;11.65;;;8.80;99.90;;;;;;5016349;28;20248;-75
2021/11/22 04:25:29;;;;;;;16.67;11.98;;;8.80;99.90;;;;;;5018279;28;20174;-75
2021/11/22 04:27:55;;;;;;;13.48;10.77;;;8.70;99.90;;;;;;5018265;28;20216;-75
2021/11/22 04:30:21;;;;;;;13.30;9.27;;;8.70;99.90;;;;;;5001313;28;20174;-74
2021/11/22 04:32:47;;;;;;;11.87;10.30;;;8.70;99.90;;;;;;5000484;28;20750;-75
2021/11/22 04:35:15;;;;;;;12.87;10.23;;;8.70;99.90;;;;;;5035800;28;20228;-75
2021/11/22 04:37:42;;;;;;;13.38;11.27;;;8.70;99.90;;;;;;5034787;28;20569;-75
2021/11/22 04:40:12;;;;;;;12.30;10.50;;;8.70;99.90;;;;;;5017172;28;20174;-75
2021/11/22 04:42:38;;;;;;;11.60;10.40;;;8.70;99.90;;;;;;5017101;28;20223;-75
2021/11/22 04:45:05;;;;;;;12.05;10.45;;;8.70;99.90;;;;;;5035309;28;20197;-75
2021/11/22 04:47:32;;;;;;;12.13;10.80;;;8.70;99.90;;;;;;5016737;28;20508;-75
2021/11/22 04:49:58;;;;;;;13.23;9.93;;;8.70;99.90;;;;;;5033845;28;20518;-75
2021/11/22 04:52:24;;;;;;;11.80;10.33;;;8.80;99.90;;;;;;5016036;28;20213;-75
2021/11/22 04:54:50;;;;;;;11.00;9.83;;;8.80;99.90;;;;;;5033629;28;20596;-75
2021/11/22 04:57:16;;;;;;;11.40;9.18;;;8.80;99.90;;;;;;5033668;28;20162;-75
2021/11/22 04:59:43;;;;;;;10.50;9.00;;;8.80;99.90;;;;;;5000069;28;20180;-75
2021/11/22 05:02:09;;;;;;;12.70;9.90;;;8.80;99.90;;;;;;5033643;28;21165;-75
2021/11/22 05:04:37;;;;;;;14.25;10.43;;;8.80;99.90;;;;;;5033400;28;20608;-75
2021/11/22 05:07:04;;;;;;;11.52;10.38;;;8.80;99.90;;;;;;5033184;28;20206;-75
2021/11/22 05:09:29;;;;;;;10.32;9.23;;;8.90;99.90;;;;;;5033676;28;20580;-75
2021/11/22 05:11:56;;;;;;;14.10;8.93;;;8.90;99.90;;;;;;5033553;28;20288;-75
2021/11/22 05:14:22;;;;;;;9.75;8.85;;;8.90;99.90;;;;;;5015388;28;20615;-75
2021/11/22 05:16:48;;;;;;;11.05;8.73;;;8.90;99.90;;;;;;5033008;28;20216;-75
2021/11/22 05:19:14;;;;;;;8.33;7.53;;;8.90;99.90;;;;;;5032961;28;20201;-75
2021/11/22 05:21:40;;;;;;;11.75;9.30;;;9.00;99.90;;;;;;5015773;28;20184;-75
2021/11/22 05:24:07;;;;;;;8.70;7.88;;;9.00;99.90;;;;;;5032885;28;20193;-75
2021/11/22 05:26:33;;;;;;;9.88;8.32;;;9.00;99.90;;;;;;5015357;28;20177;-75
2021/11/22 05:29:00;;;;;;;10.80;8.67;;;9.00;99.90;;;;;;5015889;28;20174;-75
2021/11/22 05:31:26;;;;;;;10.48;9.48;;;9.00;99.90;;;;;;5033228;28;20619;-75
2021/11/22 05:33:52;;;;;;;10.53;8.50;;;9.10;99.90;;;;;;5028075;28;20197;-75
2021/11/22 05:36:18;;;;;;;9.13;7.93;;;9.10;99.90;;;;;;5003606;28;20774;-74
2021/11/22 05:38:46;;;;;;;9.30;8.50;;;9.10;99.90;;;;;;5032253;28;20602;-75
2021/11/22 05:41:11;;;;;;;8.98;8.18;;;9.10;99.90;;;;;;5026175;28;20178;-75
2021/11/22 05:43:37;;;;;;;7.37;6.67;;;9.10;99.90;;;;;;5021313;28;20281;-75
2021/11/22 05:46:06;;;;;;;8.10;7.30;;;9.10;99.90;;;;;;5013027;28;20592;-75
2021/11/22 05:48:32;;;;;;;7.72;7.03;;;9.10;99.90;;;;;;4979899;28;20175;-75
2021/11/22 05:50:59;;;;;;;8.05;6.65;;;9.20;99.90;;;;;;4995677;28;20272;-75
2021/11/22 05:53:32;;;;;;;10.38;8.00;;;9.20;99.90;;;;;;4995773;28;20236;-75
2021/11/22 05:55:58;;;;;;;7.68;6.88;;;9.20;99.90;;;;;;5013130;28;20237;-75
2021/11/22 05:58:24;;;;;;;6.45;5.93;;;9.20;99.90;;;;;;5013406;28;20257;-74
2021/11/22 06:00:50;;;;;;;9.10;7.53;;;9.20;99.90;;;;;;5014748;28;20526;-74
2021/11/22 06:03:16;;;;;;;6.97;6.27;;;9.20;99.90;;;;;;4995671;28;20253;-75
2021/11/22 06:05:42;;;;;;;8.20;6.97;;;9.30;99.90;;;;;;4995105;28;20516;-75
2021/11/22 06:08:08;;;;;;;9.60;7.65;;;9.30;99.90;;;;;;5012397;28;20249;-74
2021/11/22 06:10:34;;;;;;;7.43;6.72;;;9.30;99.90;;;;;;5012523;28;20178;-74
2021/11/22 06:13:00;;;;;;;9.43;8.00;;;9.30;99.90;;;;;;4994982;28;20194;-75
2021/11/22 06:15:28;;;;;;;8.73;7.50;;;9.30;99.90;;;;;;4995437;28;20209;-75
2021/11/22 06:17:54;;;;;;;7.57;6.88;;;9.30;99.90;;;;;;5012173;28;20170;-74
2021/11/22 06:20:20;;;;;;;6.90;6.10;;;9.30;99.90;;;;;;5012990;28;20511;-74
2021/11/22 06:22:45;;;;;;;6.90;5.50;;;9.30;99.90;;;;;;5016139;28;20570;-74
2021/11/22 06:25:11;;;;;;;6.50;5.90;;;9.30;99.90;;;;;;5024198;28;20577;-74
2021/11/22 06:27:37;;;;;;;7.40;5.90;;;9.20;99.90;;;;;;5021206;28;20664;-74
2021/11/22 06:30:07;;;;;;;7.95;6.10;;;9.20;99.90;;;;;;5022331;28;20607;-73
2021/11/22 06:32:33;;;;;;;6.35;5.72;;;9.20;99.90;;;;;;5022325;28;20205;-73
2021/11/22 06:34:58;;;;;;;6.33;5.70;;;9.20;99.90;;;;;;5016616;28;20190;-74
2021/11/22 06:37:26;;;;;;;5.67;5.17;;;9.10;99.90;;;;;;5022834;28;20668;-74
2021/11/22 06:39:54;;;;;;;5.95;5.35;;;9.10;99.90;;;;;;4980205;28;20565;-74
2021/11/22 06:42:20;;;;;;;8.20;7.50;;;9.00;99.90;;;;;;4978517;28;20174;-75
2021/11/22 06:44:47;;;;;;;9.95;7.10;;;8.90;99.90;;;;;;5012426;28;20196;-75
2021/11/22 06:47:13;;;;;;;6.65;5.95;;;8.90;99.90;;;;;;4994006;28;20171;-77
2021/11/22 06:49:39;;;;;;;6.70;6.10;;;8.80;99.90;;;;;;5012372;28;20189;-75
2021/11/22 06:52:05;;;;;;;7.73;6.20;;;8.80;99.90;;;;;;4994425;28;20543;-74
2021/11/22 06:54:32;;;;;;;8.23;7.43;;;8.70;99.90;;;;;;4993563;28;20620;-76
2021/11/22 06:56:58;;;;;;;6.95;6.35;;;8.70;99.90;;;;;;5010476;28;20170;-75
2021/11/22 06:59:25;;;;;;;8.15;6.50;;;8.60;99.90;;;;;;5011425;28;20174;-75
2021/11/22 07:01:51;;;;;;;8.45;7.65;;;8.60;99.90;;;;;;4994600;28;20206;-75
2021/11/22 07:04:16;;;;;;;7.37;6.63;;;8.50;99.90;;;;;;5011544;28;20221;-75
2021/11/22 07:06:42;;;;;;;6.80;6.10;;;8.40;99.90;;;;;;5010638;28;20686;-75
2021/11/22 07:09:08;;;;;;;7.93;7.17;;;8.30;99.90;;;;;;5010372;28;20182;-75
2021/11/22 07:11:34;;;;;;;7.13;6.40;;;8.20;99.90;;;;;;5010431;28;20652;-75
2021/11/22 07:14:02;;;;;;;8.03;7.33;;;8.20;99.90;;;;;;4976358;28;20236;-76
2021/11/22 07:16:28;;;;;;;8.68;7.78;;;8.10;99.90;;;;;;4992361;28;21165;-75
2021/11/22 07:18:54;;;;;;;7.47;6.28;;;8.00;99.90;;;;;;5010830;28;20186;-75
2021/11/22 07:21:20;;;;;;;7.20;6.50;;;8.00;99.90;;;;;;5020281;28;20178;-75
2021/11/22 07:23:45;;;;;;;6.03;5.43;;;7.90;99.90;;;;;;5021290;28;21026;-75
2021/11/22 07:26:11;;;;;;;6.63;6.10;;;7.80;99.90;;;;;;5030691;28;20178;-74
2021/11/22 07:28:37;;;;;;;7.37;6.67;;;7.80;99.90;;;;;;5011159;28;20261;-74
2021/11/22 07:31:03;;;;;;;6.20;5.60;;;7.70;99.90;;;;;;5028193;28;20593;-75
2021/11/22 07:33:29;;;;;;;6.93;5.70;;;7.70;99.90;;;;;;5018641;28;20593;-75
2021/11/22 07:35:54;;;;;;;7.93;6.30;;;7.70;99.90;;;;;;5023277;28;20258;-75
2021/11/22 07:38:20;;;;;;;6.63;6.00;;;7.60;99.90;;;;;;5037199;28;21099;-74
2021/11/22 07:40:47;;;;;;;7.30;6.50;;;7.60;99.90;;;;;;5036762;28;20184;-75
2021/11/22 07:43:15;;;;;;;6.20;5.60;;;7.60;99.90;;;;;;5005953;28;20950;-75
2021/11/22 07:45:41;;;;;;;7.20;6.47;;;7.60;99.90;;;;;;5011596;28;20174;-75
2021/11/22 07:48:07;;;;;;;5.97;5.38;;;7.60;99.90;;;;;;5011525;28;20169;-75
2021/11/22 07:50:33;;;;;;;7.40;5.50;;;7.60;99.90;;;;;;5012290;28;20167;-75
2021/11/22 07:52:59;;;;;;;7.30;6.63;;;7.60;99.90;;;;;;5012433;28;20205;-75
2021/11/22 07:55:25;;;;;;;5.87;4.67;;;7.60;99.90;;;;;;5011810;28;20565;-75
2021/11/22 07:57:52;;;;;;;5.27;4.77;;;7.60;99.90;;;;;;5011518;28;20585;-76
2021/11/22 08:00:20;;;;;;;5.53;5.03;;;7.60;99.90;;;;;;5011372;28;20669;-75
2021/11/22 08:02:46;;;;;;;4.88;4.43;;;7.60;99.90;;;;;;5010847;28;20215;-75
2021/11/22 08:05:12;;;;;;;5.70;5.20;;;7.60;99.90;;;;;;5012882;28;20189;-76
2021/11/22 08:07:41;;;;;;;5.15;4.65;;;7.60;99.90;;;;;;5014316;28;20609;-75
2021/11/22 08:10:34;;;;;;;5.00;4.60;;;7.70;99.90;;;;;;4997122;28;20179;-75
2021/11/22 08:13:07;;;;;;;5.18;4.65;;;7.70;99.90;;;;;;4996654;28;20229;-75
2021/11/22 08:15:34;;;;;;;5.55;4.97;;;7.70;99.90;;;;;;5015266;28;20697;-75
2021/11/22 08:18:01;;;;;;;5.85;5.30;;;7.80;99.90;;;;;;4996654;28;20170;-76
2021/11/22 08:20:28;;;;;;;4.95;4.55;;;7.80;99.90;;;;;;5014883;28;20188;-76
2021/11/22 08:22:54;;;;;;;4.80;4.40;;;7.80;99.90;;;;;;5014236;28;20589;-76
2021/11/22 08:25:23;;;;;;;4.95;3.75;;;7.80;99.90;;;;;;5014637;28;20182;-76
2021/11/22 08:27:53;;;;;;;5.55;4.70;;;7.80;99.90;;;;;;4996462;28;20265;-76
2021/11/22 08:30:20;;;;;;;5.65;3.78;;;7.90;99.90;;;;;;5013464;28;20170;-76
2021/11/22 08:32:48;;;;;;;6.47;4.50;;;7.90;99.90;;;;;;5012766;28;20297;-76
2021/11/22 08:35:15;;;;;;;4.95;4.45;;;7.90;99.90;;;;;;4980730;28;20639;-76
2021/11/22 08:37:41;;;;;;;5.15;4.25;;;7.90;99.90;;;;;;5013878;28;20177;-75
2021/11/22 08:40:10;;;;;;;4.55;4.15;;;8.00;99.90;;;;;;5014650;28;20166;-75
2021/11/22 08:42:36;;;;;;;5.97;4.47;;;8.10;99.90;;;;;;5014431;28;20660;-75
2021/11/22 08:45:03;;;;;;;6.60;6.00;;;8.10;99.90;;;;;;4996949;28;20197;-76
2021/11/22 08:47:29;;;;;;;4.75;4.35;;;8.20;99.90;;;;;;5014463;28;20572;-75
2021/11/22 08:49:55;;;;;;;5.00;4.07;;;8.20;99.90;;;;;;5013975;28;20205;-76
2021/11/22 08:52:22;;;;;;;4.93;4.10;;;8.30;99.90;;;;;;5020115;28;20201;-76
2021/11/22 08:54:49;;;;;;;4.40;4.00;;;8.40;99.90;;;;;;5016935;28;20198;-75
2021/11/22 08:57:16;;;;;;;4.47;4.03;;;8.50;99.90;;;;;;5014014;28;20185;-77
2021/11/22 08:59:42;;;;;;;4.88;4.32;;;8.50;99.90;;;;;;5013583;28;20534;-76
2021/11/22 09:02:09;;;;;;;7.50;5.80;;;8.60;99.90;;;;;;4996734;28;20174;-76
2021/11/22 09:04:35;;;;;;;6.78;6.22;;;8.70;99.90;;;;;;5013514;28;20561;-76
2021/11/22 09:07:01;;;;;;;5.57;5.07;;;8.80;99.90;;;;;;5013879;28;20163;-76
2021/11/22 09:09:26;;;;;;;5.30;4.80;;;8.90;99.90;;;;;;5013859;28;20648;-76
2021/11/22 09:11:52;;;;;;;5.30;4.80;;;8.90;99.90;;;;;;4997380;28;20272;-76
2021/11/22 09:14:18;;;;;;;6.75;6.03;;;9.00;99.90;;;;;;5014479;28;20217;-76
2021/11/22 09:16:44;;;;;;;4.70;4.13;;;9.10;99.90;;;;;;5016218;28;20163;-76
2021/11/22 09:19:10;;;;;;;3.93;3.63;;;9.10;99.90;;;;;;5017019;28;20569;-76
2021/11/22 09:21:36;;;;;;;3.63;3.33;;;9.20;99.90;;;;;;5021852;28;20581;-76
2021/11/22 09:24:04;;;;;;;4.60;4.10;;;9.30;99.90;;;;;;5016771;28;20593;-76
2021/11/22 09:26:30;;;;;;;4.60;3.83;;;9.30;99.90;;;;;;4996754;28;20169;-75
2021/11/22 09:28:56;;;;;;;4.28;3.65;;;9.40;99.90;;;;;;5013863;28;20175;-75
2021/11/22 09:31:22;;;;;;;3.72;3.35;;;9.60;99.90;;;;;;5015710;28;20194;-76
2021/11/22 09:33:51;;;;;;;4.20;3.90;;;9.70;99.90;;;;;;5012304;28;20193;-75
2021/11/22 09:36:17;;;;;;;3.70;3.40;;;9.80;99.90;;;;;;5016951;28;20178;-75
2021/11/22 09:38:43;;;;;;;3.78;3.42;;;9.90;99.90;;;;;;5020523;28;20956;-76
2021/11/22 09:41:09;;;;;;;3.45;3.15;;;9.90;99.90;;;;;;5015958;28;20570;-76
2021/11/22 09:43:36;;;;;;;3.00;2.80;;;10.00;99.90;;;;;;5017798;28;20217;-78
2021/11/22 09:46:02;;;;;;;4.45;3.95;;;10.10;99.90;;;;;;5023008;28;20177;-79
2021/11/22 09:48:29;;;;;;;4.30;3.50;;;10.20;99.90;;;;;;5021770;28;20227;-76
2021/11/22 09:50:55;;;;;;;4.97;4.55;;;10.30;99.90;;;;;;5019416;28;20181;-77
2021/11/22 09:53:21;;;;;;;4.15;3.83;;;10.40;99.90;;;;;;4999131;28;20233;-77
2021/11/22 09:55:48;;;;;;;3.67;3.38;;;10.50;99.90;;;;;;4996479;28;20181;-76
2021/11/22 09:58:14;;;;;;;4.38;4.00;;;10.70;99.90;;;;;;5017279;28;20249;-77
2021/11/22 10:00:50;;;;;;;3.80;3.50;;;10.80;99.90;;;;;;5014141;28;20197;-77
2021/11/22 10:03:19;;;;;;;4.43;3.50;;;10.80;99.90;;;;;;5014970;28;20589;-77
2021/11/22 10:05:46;;;;;;;3.95;3.65;;;10.90;99.90;;;;;;4996803;28;20171;-76
2021/11/22 10:08:17;;;;;;;4.60;4.20;;;10.90;99.90;;;;;;5013350;28;20201;-76
2021/11/22 10:10:44;;;;;;;5.90;4.50;;;10.80;99.90;;;;;;4995607;28;20166;-76
2021/11/22 10:13:22;;;;;;;3.50;3.20;;;10.80;99.90;;;;;;5013997;28;20311;-76
2021/11/22 10:15:49;;;;;;;4.00;3.67;;;10.80;99.90;;;;;;4995586;28;20178;-76
2021/11/22 10:18:20;;;;;;;3.00;2.80;;;10.80;99.90;;;;;;5011879;28;20190;-76
2021/11/22 10:20:46;;;;;;;3.10;2.90;;;10.80;99.90;;;;;;5013333;28;20194;-76
2021/11/22 10:23:13;;;;;;;2.63;2.42;;;10.80;99.90;;;;;;4994986;28;20281;-77
2021/11/22 10:25:43;;;;;;;2.38;2.17;;;10.80;99.90;;;;;;4979407;28;20170;-77
2021/11/22 10:28:10;;;;;;;3.60;1.63;;;10.80;99.90;;;;;;5011953;28;20233;-77
2021/11/22 10:30:42;;;;;;;1.98;1.63;;;10.80;99.90;;;;;;5028996;28;20210;-77
2021/11/22 10:33:14;;;;;;;2.05;1.85;;;10.80;99.90;;;;;;5012542;28;20210;-77
2021/11/22 10:35:41;;;;;;;2.15;1.95;;;10.80;99.90;;;;;;5000661;28;20177;-77
2021/11/22 10:38:17;;;;;;;2.42;2.22;;;10.90;99.90;;;;;;5013441;28;20166;-77
2021/11/22 10:40:48;;;;;;;2.20;2.00;;;11.00;99.90;;;;;;4995810;28;20174;-77
2021/11/22 10:43:15;;;;;;;2.60;2.40;;;11.00;99.90;;;;;;5013286;28;20229;-77
2021/11/22 10:45:51;;;;;;;2.65;2.45;;;11.20;99.90;;;;;;4995457;28;20175;-77
2021/11/22 10:48:26;;;;;;;3.17;2.88;;;11.20;99.90;;;;;;4979187;28;20185;-77
2021/11/22 10:51:04;;;;;;;3.08;2.83;;;11.20;99.90;;;;;;4994930;28;20186;-77
2021/11/22 10:53:40;;;;;;;3.47;3.17;;;11.30;99.90;;;;;;5013164;28;20186;-77
2021/11/22 10:56:10;;;;;;;2.60;2.40;;;11.30;99.90;;;;;;5012828;28;20178;-77
2021/11/22 10:58:41;;;;;;;2.78;2.55;;;11.30;99.90;;;;;;4995615;28;20598;-77
2021/11/22 11:01:24;;;;;;;3.22;3.03;;;11.30;99.90;;;;;;5012482;28;20201;-77
2021/11/22 11:04:01;;;;;;;2.75;2.55;;;11.30;99.90;;;;;;5013684;28;20186;-77
2021/11/22 11:06:35;;;;;;;2.60;2.40;;;11.20;99.90;;;;;;5013992;28;20181;-77
2021/11/22 11:09:01;;;;;;;2.65;2.45;;;11.20;99.90;;;;;;5014875;28;20174;-77
2021/11/22 11:11:27;;;;;;;2.63;2.42;;;11.20;99.90;;;;;;5018953;28;20186;-77
2021/11/22 11:13:53;;;;;;;2.70;2.50;;;11.30;99.90;;;;;;4997418;28;20212;-77
2021/11/22 11:16:20;;;;;;;2.47;2.28;;;11.30;99.90;;;;;;4995691;28;20178;-78
2021/11/22 11:18:56;;;;;;;3.17;2.88;;;11.30;99.90;;;;;;4980160;28;20166;-77
2021/11/22 11:21:26;;;;;;;3.33;3.08;;;11.40;99.90;;;;;;4996763;28;20548;-77
2021/11/22 11:23:53;;;;;;;2.67;2.47;;;11.50;99.90;;;;;;5028785;28;20572;-77
2021/11/22 11:26:19;;;;;;;3.30;3.00;;;11.40;99.90;;;;;;5013231;28;20213;-77
2021/11/22 11:28:44;;;;;;;3.50;3.20;;;11.50;99.90;;;;;;5012171;28;20170;-77
2021/11/22 11:31:10;;;;;;;4.00;2.60;;;11.50;99.90;;;;;;5011730;28;20639;-77
2021/11/22 11:33:36;;;;;;;2.43;2.23;;;11.60;99.90;;;;;;5012029;28;20182;-77
2021/11/22 11:36:19;;;;;;;3.67;3.37;;;11.60;99.90;;;;;;5011376;28;20510;-77
2021/11/22 11:38:54;;;;;;;3.00;2.65;;;11.60;99.90;;;;;;4994481;28;20166;-77
2021/11/22 11:41:43;;;;;;;4.85;2.65;;;11.70;99.90;;;;;;4997712;28;20178;-77
2021/11/22 11:44:24;;;;;;;3.05;2.60;;;11.60;99.90;;;;;;4997501;28;20194;-77
2021/11/22 11:47:18;;;;;;;3.65;2.72;;;11.60;99.90;;;;;;4997392;28;20258;-77
2021/11/22 11:49:43;;;;;;;3.92;3.63;;;11.50;99.90;;;;;;5021381;28;20205;-77
2021/11/22 11:52:28;;;;;;;4.50;3.37;;;11.40;99.90;;;;;;4998323;28;20206;-77
2021/11/22 11:54:55;;;;;;;3.13;2.90;;;11.20;99.90;;;;;;5015142;28;20696;-77
2021/11/22 11:57:30;;;;;;;4.70;3.60;;;11.10;99.90;;;;;;5015068;28;20289;-77
2021/11/22 11:59:56;;;;;;;3.30;3.00;;;11.00;99.90;;;;;;5015069;28;20216;-75
2021/11/22 12:02:33;;;;;;;3.07;2.80;;;10.90;99.90;;;;;;5015318;28;20308;-76
2021/11/22 12:05:02;;;;;;;3.15;2.75;;;10.70;99.90;;;;;;5015151;28;20605;-76
2021/11/22 12:07:36;;;;;;;3.60;3.30;;;10.60;99.90;;;;;;5014432;28;20183;-76
2021/11/22 12:10:25;;;;;;;4.05;3.13;;;10.60;99.90;;;;;;5014937;28;20579;-76
2021/11/22 12:13:03;;;;;;;2.53;2.30;;;10.50;99.90;;;;;;5013998;28;20194;-77
2021/11/22 12:15:33;;;;;;;2.88;1.60;;;10.40;99.90;;;;;;5015023;28;20170;-76
2021/11/22 12:18:28;;;;;;;1.90;1.70;;;10.40;99.90;;;;;;5014774;28;20739;-76
2021/11/22 12:21:17;;;;;;;1.92;1.83;;;10.20;99.90;;;;;;4982286;28;20181;-76
2021/11/22 12:23:47;;;;;;;1.83;1.60;;;10.20;99.90;;;;;;4997410;28;20198;-76
2021/11/22 12:26:15;;;;;;;2.30;2.10;;;10.20;99.90;;;;;;5020068;28;20162;-77
2021/11/22 12:28:44;;;;;;;2.10;1.90;;;10.10;99.90;;;;;;5014564;28;20265;-76
2021/11/22 12:31:23;;;;;;;1.70;1.45;;;10.10;99.90;;;;;;5014590;28;20241;-76
2021/11/22 12:33:59;;;;;;;1.90;1.70;;;10.10;99.90;;;;;;4996767;28;20202;-77
2021/11/22 12:36:25;;;;;;;1.60;1.40;;;10.10;99.90;;;;;;5012989;28;20269;-77
2021/11/22 12:38:51;;;;;;;4.03;1.23;;;10.10;99.90;;;;;;4996819;28;20249;-76
2021/11/22 12:41:23;;;;;;;2.08;1.20;;;10.10;99.90;;;;;;5014899;28;20213;-76
2021/11/22 12:43:52;;;;;;;1.70;0.80;;;10.00;99.90;;;;;;5014777;28;20197;-78
2021/11/22 12:46:34;;;;;;;1.60;0.90;;;10.00;99.90;;;;;;5030874;28;20170;-78
2021/11/22 12:49:02;;;;;;;2.50;0.90;;;10.00;99.90;;;;;;4996897;28;20753;-78
2021/11/22 12:51:44;;;;;;;1.20;0.60;;;9.90;99.90;;;;;;4996650;28;20252;-78
2021/11/22 12:54:12;;;;;;;1.55;0.70;;;9.80;99.90;;;;;;4996518;28;20193;-78